Time;durP1;ratioP1;P1;durP2;ratioP2;P2;SDS_P1;SDS_P2;PMS_P1;PMS_P2;Temp;Humidity;BMP_temperature;BMP_pressure;BME280_temperature;BME280_humidity;BME280_pressure;Samples;Min_cycle;Max_cycle;Signal;HPM_P1;HPM_P2
2022/05/26 00:00:25;;;;;;;0.70;0.60;;;20.10;56.50;;;;;;5081026;28;20565;-49
2022/05/26 00:03:04;;;;;;;0.90;0.70;;;20.10;56.60;;;;;;5110371;27;1189537;-48
2022/05/26 00:05:44;;;;;;;0.80;0.60;;;20.10;56.60;;;;;;5121589;27;21047;-50
2022/05/26 00:08:28;;;;;;;1.33;0.50;;;20.10;56.70;;;;;;5103925;27;20606;-49
2022/05/26 00:11:11;;;;;;;0.60;0.60;;;20.10;56.70;;;;;;5081172;27;21113;-47
2022/05/26 00:13:52;;;;;;;1.07;0.70;;;20.00;56.80;;;;;;5079757;27;20545;-48
2022/05/26 00:16:35;;;;;;;1.10;0.80;;;20.10;56.80;;;;;;5121137;27;20540;-47
2022/05/26 00:19:19;;;;;;;0.60;0.60;;;20.10;56.80;;;;;;5063631;27;20548;-50
2022/05/26 00:22:05;;;;;;;1.00;0.60;;;20.10;57.00;;;;;;5116521;27;20542;-49
2022/05/26 00:24:46;;;;;;;1.30;1.10;;;20.00;56.80;;;;;;5079596;28;20516;-48
2022/05/26 00:27:26;;;;;;;1.23;0.50;;;20.00;56.90;;;;;;5115817;27;20589;-46
2022/05/26 00:30:07;;;;;;;0.70;0.50;;;20.00;56.90;;;;;;5081527;28;20585;-48
2022/05/26 00:32:49;;;;;;;3.23;0.60;;;20.00;57.00;;;;;;5086662;27;20615;-48
2022/05/26 00:35:30;;;;;;;0.80;0.70;;;20.00;57.00;;;;;;5067988;28;20570;-49
2022/05/26 00:38:13;;;;;;;1.63;0.70;;;20.00;57.10;;;;;;5097761;27;20630;-49
2022/05/26 00:41:02;;;;;;;2.43;0.73;;;20.00;57.00;;;;;;5081011;28;20929;-47
2022/05/26 00:43:44;;;;;;;1.80;1.10;;;20.00;57.10;;;;;;5080242;27;20616;-50
2022/05/26 00:46:36;;;;;;;1.10;0.73;;;20.00;57.10;;;;;;5118550;27;20513;-48
2022/05/26 00:49:24;;;;;;;0.80;0.60;;;20.00;57.10;;;;;;5104560;27;20610;-50
2022/05/26 00:52:09;;;;;;;0.87;0.60;;;20.00;57.10;;;;;;5100522;27;20603;-47
2022/05/26 00:54:57;;;;;;;1.70;0.73;;;20.00;57.00;;;;;;5080639;28;20516;-48
2022/05/26 00:57:41;;;;;;;1.40;0.77;;;20.00;57.00;;;;;;5063404;27;20571;-49
2022/05/26 01:00:26;;;;;;;0.57;0.50;;;20.00;57.10;;;;;;5102001;27;20572;-48
2022/05/26 01:03:21;;;;;;;0.87;0.50;;;20.00;57.10;;;;;;5075007;27;20536;-49
2022/05/26 01:06:05;;;;;;;1.63;0.63;;;20.00;57.20;;;;;;5080090;28;20871;-47
2022/05/26 01:08:50;;;;;;;0.80;0.80;;;20.00;57.20;;;;;;5087693;27;20931;-67
2022/05/26 01:11:33;;;;;;;0.70;0.53;;;20.00;57.20;;;;;;5182058;27;20524;-47
2022/05/26 01:14:16;;;;;;;1.57;0.70;;;20.00;57.20;;;;;;5002839;28;20563;-50
2022/05/26 01:17:09;;;;;;;1.33;0.97;;;20.00;57.20;;;;;;5080631;28;20536;-49
2022/05/26 01:20:21;;;;;;;1.63;0.73;;;20.00;57.20;;;;;;5102318;27;20576;-49
2022/05/26 01:23:41;;;;;;;0.87;0.80;;;20.00;57.20;;;;;;5093477;27;21113;-50
2022/05/26 01:27:00;;;;;;;1.70;0.63;;;20.00;57.20;;;;;;5121323;27;21151;-48
2022/05/26 01:30:12;;;;;;;1.53;0.60;;;20.00;57.40;;;;;;5060716;27;20613;-55
2022/05/26 01:33:13;;;;;;;1.33;0.60;;;20.00;57.40;;;;;;5105490;27;20553;-48
2022/05/26 01:36:13;;;;;;;1.10;0.73;;;19.90;57.30;;;;;;5120374;27;20601;-49
2022/05/26 01:39:05;;;;;;;0.93;0.67;;;20.00;57.50;;;;;;5076881;27;20951;-46
2022/05/26 01:42:01;;;;;;;1.10;0.73;;;20.00;57.50;;;;;;5121941;27;20565;-48
2022/05/26 01:44:49;;;;;;;1.80;0.70;;;20.00;57.50;;;;;;5059721;27;20540;-49
2022/05/26 01:47:42;;;;;;;1.73;0.70;;;19.90;57.40;;;;;;5077429;28;20593;-48
2022/05/26 01:50:30;;;;;;;0.60;0.60;;;19.90;57.40;;;;;;5080741;28;20576;-48
2022/05/26 01:53:23;;;;;;;0.60;0.50;;;19.90;57.40;;;;;;5073657;28;20942;-47
2022/05/26 01:56:15;;;;;;;1.17;0.73;;;19.90;57.50;;;;;;5079845;27;20522;-46
2022/05/26 01:59:04;;;;;;;1.00;0.53;;;19.90;57.50;;;;;;5078101;27;20587;-50
2022/05/26 02:01:54;;;;;;;0.80;0.67;;;19.90;57.50;;;;;;5120368;27;20612;-47
2022/05/26 02:04:37;;;;;;;0.70;0.60;;;19.90;57.50;;;;;;5065525;27;20591;-48
2022/05/26 02:07:25;;;;;;;1.97;0.63;;;19.90;57.60;;;;;;5119841;27;20588;-47
2022/05/26 02:10:11;;;;;;;1.47;0.90;;;19.90;57.60;;;;;;5087485;28;20930;-48
2022/05/26 02:12:55;;;;;;;1.17;0.73;;;19.90;57.60;;;;;;5073587;28;20545;-49
2022/05/26 02:15:43;;;;;;;1.10;0.80;;;19.90;57.60;;;;;;5074019;28;20596;-48
2022/05/26 02:18:28;;;;;;;0.80;0.70;;;19.90;57.80;;;;;;5107875;27;20957;-50
2022/05/26 02:21:15;;;;;;;0.60;0.60;;;19.90;57.80;;;;;;5081978;28;20581;-49
2022/05/26 02:24:02;;;;;;;0.90;0.60;;;19.90;57.90;;;;;;5086466;27;20548;-47
2022/05/26 02:26:45;;;;;;;1.50;0.60;;;19.90;58.10;;;;;;5087464;28;20531;-48
2022/05/26 02:32:27;;;;;;;0.60;0.60;;;19.90;58.10;;;;;;5143597;27;1197083;-47
2022/05/26 02:35:13;;;;;;;0.70;0.60;;;19.90;58.10;;;;;;5085984;27;20922;-48
2022/05/26 02:37:58;;;;;;;0.80;0.60;;;19.90;58.30;;;;;;5056847;28;20547;-47
2022/05/26 02:40:40;;;;;;;0.60;0.43;;;19.90;58.40;;;;;;5063387;27;20547;-48
2022/05/26 02:43:24;;;;;;;1.67;0.53;;;19.90;58.40;;;;;;5076780;28;20543;-48
2022/05/26 02:46:16;;;;;;;1.03;0.50;;;19.90;58.40;;;;;;5085627;28;20517;-47
2022/05/26 02:49:09;;;;;;;0.70;0.47;;;19.90;58.40;;;;;;5072718;27;20578;-49
2022/05/26 02:51:56;;;;;;;1.00;0.90;;;19.80;58.40;;;;;;5032462;27;20585;-46
2022/05/26 02:54:57;;;;;;;1.13;0.87;;;19.90;58.60;;;;;;5065166;28;20537;-47
2022/05/26 02:57:44;;;;;;;3.03;0.80;;;19.90;58.60;;;;;;5079327;28;21112;-47
2022/05/26 03:00:32;;;;;;;0.60;0.50;;;19.80;58.50;;;;;;5145656;27;20535;-48
2022/05/26 03:03:20;;;;;;;0.67;0.67;;;19.90;58.60;;;;;;5070354;27;20600;-49
2022/05/26 03:06:06;;;;;;;1.30;0.70;;;19.80;58.50;;;;;;5081847;28;20530;-49
2022/05/26 03:08:47;;;;;;;2.10;0.70;;;19.90;58.50;;;;;;5094675;27;21142;-48
2022/05/26 03:11:28;;;;;;;0.80;0.70;;;19.80;58.60;;;;;;5081776;28;20523;-48
2022/05/26 03:14:08;;;;;;;0.80;0.40;;;19.80;58.60;;;;;;5060181;28;20541;-52
2022/05/26 03:16:49;;;;;;;0.70;0.60;;;19.80;58.60;;;;;;5102027;27;20533;-48
2022/05/26 03:19:31;;;;;;;0.90;0.63;;;19.80;58.60;;;;;;5066912;27;20559;-47
2022/05/26 03:22:12;;;;;;;1.20;1.00;;;19.80;58.50;;;;;;5117138;27;21065;-48
2022/05/26 03:24:53;;;;;;;2.60;1.00;;;19.80;58.60;;;;;;5101745;27;20528;-45
2022/05/26 03:27:34;;;;;;;0.77;0.60;;;19.80;59.90;;;;;;5110467;27;20545;-48
2022/05/26 03:30:16;;;;;;;1.03;0.70;;;19.80;58.60;;;;;;5122217;27;20581;-50
2022/05/26 03:32:58;;;;;;;0.97;0.70;;;19.80;58.60;;;;;;5089452;27;20548;-47
2022/05/26 03:41:33;;;;;;;0.80;0.70;;;19.80;58.60;;;;;;5122398;27;20929;-48
2022/05/26 03:44:15;;;;;;;1.50;0.80;;;19.80;58.60;;;;;;5054190;27;20960;-48
2022/05/26 03:46:56;;;;;;;1.87;0.53;;;19.80;58.70;;;;;;5116818;27;20593;-49
2022/05/26 03:49:41;;;;;;;1.73;0.60;;;19.80;58.60;;;;;;5062111;27;20545;-49
2022/05/26 03:52:22;;;;;;;0.80;0.60;;;19.80;58.70;;;;;;5068420;27;20537;-49
2022/05/26 03:55:05;;;;;;;1.07;0.63;;;19.80;58.70;;;;;;5100177;27;21047;-51
2022/05/26 03:57:46;;;;;;;0.70;0.60;;;19.80;58.70;;;;;;5061014;28;20580;-47
2022/05/26 04:00:27;;;;;;;0.80;0.80;;;19.80;58.70;;;;;;5081638;27;20522;-50
2022/05/26 04:03:07;;;;;;;1.73;0.80;;;19.80;58.70;;;;;;5088109;27;20550;-48
2022/05/26 04:05:49;;;;;;;1.00;0.83;;;19.80;58.80;;;;;;5112381;27;21068;-49
2022/05/26 04:08:31;;;;;;;0.80;0.70;;;19.80;58.90;;;;;;5130146;27;20590;-51
2022/05/26 04:11:12;;;;;;;2.10;0.87;;;19.80;58.90;;;;;;5082031;28;20537;-49
2022/05/26 04:13:54;;;;;;;1.10;0.80;;;19.80;58.90;;;;;;5066471;28;20535;-48
2022/05/26 04:16:35;;;;;;;1.17;0.90;;;19.80;58.90;;;;;;5079244;28;20591;-50
2022/05/26 04:19:16;;;;;;;1.77;0.83;;;19.80;58.90;;;;;;5065451;27;20545;-54
2022/05/26 04:22:18;;;;;;;0.87;0.50;;;19.70;58.90;;;;;;5079813;27;20560;-48
2022/05/26 04:25:03;;;;;;;1.00;0.80;;;19.70;58.90;;;;;;5122074;27;20515;-51
2022/05/26 04:27:47;;;;;;;1.37;0.60;;;19.70;58.90;;;;;;5076824;27;20968;-48
2022/05/26 04:30:29;;;;;;;1.40;0.70;;;19.70;58.90;;;;;;5142331;27;21204;-48
2022/05/26 04:33:10;;;;;;;1.17;0.90;;;19.80;58.90;;;;;;5068153;27;20595;-51
2022/05/26 04:35:56;;;;;;;1.30;0.80;;;19.70;58.90;;;;;;5081143;28;20555;-46
2022/05/26 04:38:37;;;;;;;1.80;0.87;;;19.70;58.90;;;;;;5025060;27;20646;-47
2022/05/26 04:41:18;;;;;;;2.60;0.70;;;19.70;58.90;;;;;;5122589;27;20957;-48
2022/05/26 04:43:58;;;;;;;0.80;0.80;;;19.70;58.90;;;;;;5099104;27;1197690;-48
2022/05/26 04:46:39;;;;;;;1.73;0.80;;;19.70;58.90;;;;;;5120442;27;20622;-49
2022/05/26 04:49:20;;;;;;;1.33;0.80;;;19.70;59.00;;;;;;5072530;27;20618;-47
2022/05/26 04:52:02;;;;;;;1.07;0.67;;;19.70;58.90;;;;;;5120066;27;20539;-47
2022/05/26 04:54:46;;;;;;;0.77;0.70;;;19.70;59.00;;;;;;5051724;27;20541;-48
2022/05/26 04:57:28;;;;;;;1.20;1.10;;;19.70;58.90;;;;;;5119711;27;20626;-49
2022/05/26 05:00:14;;;;;;;0.77;0.73;;;19.70;59.00;;;;;;5129758;27;20585;-68
2022/05/26 05:02:54;;;;;;;2.50;0.80;;;19.70;59.00;;;;;;5072474;27;20633;-48
2022/05/26 05:05:35;;;;;;;1.47;0.90;;;19.70;59.10;;;;;;5089557;27;20526;-49
2022/05/26 05:08:16;;;;;;;0.70;0.70;;;19.70;59.10;;;;;;5064592;28;20911;-49
2022/05/26 05:10:57;;;;;;;0.90;0.60;;;19.70;59.10;;;;;;5080020;28;20588;-48
2022/05/26 05:13:38;;;;;;;1.07;0.80;;;19.70;59.10;;;;;;5096128;27;20573;-49
2022/05/26 05:16:26;;;;;;;0.80;0.80;;;19.70;59.00;;;;;;5078490;27;20529;-47
2022/05/26 05:19:07;;;;;;;0.83;0.73;;;19.70;59.10;;;;;;5076678;27;20547;-46
2022/05/26 05:21:52;;;;;;;0.70;0.70;;;19.70;59.10;;;;;;5122315;27;20497;-48
2022/05/26 05:24:38;;;;;;;3.05;0.93;;;19.70;59.10;;;;;;5071950;27;1213608;-46
2022/05/26 05:27:24;;;;;;;2.10;1.00;;;19.70;59.10;;;;;;5077524;28;20600;-47
2022/05/26 05:30:15;;;;;;;2.00;0.80;;;19.70;59.10;;;;;;5079505;28;20952;-47
2022/05/26 05:33:03;;;;;;;1.27;0.90;;;19.70;59.30;;;;;;5075229;28;20551;-48
2022/05/26 05:35:49;;;;;;;0.70;0.67;;;19.60;59.20;;;;;;5100801;27;20728;-47
2022/05/26 05:38:32;;;;;;;1.57;1.07;;;19.60;59.10;;;;;;5083352;27;21096;-50
2022/05/26 05:41:14;;;;;;;1.10;1.00;;;19.60;59.20;;;;;;5081236;27;20525;-48
2022/05/26 05:44:00;;;;;;;0.73;0.70;;;19.60;59.10;;;;;;5065223;27;20608;-46
2022/05/26 05:49:34;;;;;;;1.10;0.87;;;19.60;59.20;;;;;;5074043;27;20587;-66
2022/05/26 05:52:21;;;;;;;1.90;1.10;;;19.60;59.20;;;;;;5120026;27;20659;-49
2022/05/26 05:55:05;;;;;;;1.53;1.17;;;19.60;59.30;;;;;;5122875;27;20600;-49
2022/05/26 05:57:51;;;;;;;1.67;1.07;;;19.60;59.20;;;;;;5055636;27;20585;-47
2022/05/26 06:00:33;;;;;;;1.70;1.10;;;19.60;59.30;;;;;;5081216;27;20575;-48
2022/05/26 06:03:15;;;;;;;1.67;1.00;;;19.60;59.30;;;;;;5105892;27;21310;-46
2022/05/26 06:06:00;;;;;;;0.93;0.83;;;19.60;59.30;;;;;;5074908;28;20577;-48
2022/05/26 06:08:42;;;;;;;2.20;1.10;;;19.60;59.30;;;;;;5102049;27;21073;-48
2022/05/26 06:11:24;;;;;;;1.40;1.20;;;19.60;59.40;;;;;;5099881;27;20646;-49
2022/05/26 06:14:07;;;;;;;2.50;1.20;;;19.60;59.30;;;;;;5049257;27;20574;-49
2022/05/26 06:16:51;;;;;;;1.47;1.37;;;19.60;59.40;;;;;;5080509;27;20572;-48
2022/05/26 06:19:37;;;;;;;1.40;1.27;;;19.60;59.50;;;;;;5063514;27;20694;-48
2022/05/26 06:22:22;;;;;;;1.57;1.00;;;19.60;59.50;;;;;;5135524;27;20322;-47
2022/05/26 06:25:05;;;;;;;2.20;1.37;;;19.60;59.40;;;;;;5121293;27;20850;-48
2022/05/26 06:30:46;;;;;;;1.37;1.20;;;19.60;59.50;;;;;;5081136;27;20554;-47
2022/05/26 06:39:29;;;;;;;2.50;1.50;;;19.60;59.70;;;;;;5029261;27;21007;-48
2022/05/26 06:42:11;;;;;;;1.27;1.17;;;19.60;59.70;;;;;;5099549;27;20933;-48
2022/05/26 06:44:54;;;;;;;1.87;1.30;;;19.60;59.70;;;;;;5100111;27;20548;-47
2022/05/26 06:47:43;;;;;;;1.57;1.20;;;19.60;59.70;;;;;;5123697;27;20561;-48
2022/05/26 06:50:27;;;;;;;3.30;1.20;;;19.60;59.70;;;;;;5078756;27;20545;-47
2022/05/26 06:53:11;;;;;;;1.60;1.50;;;19.50;59.60;;;;;;5103375;27;20537;-48
2022/05/26 06:55:55;;;;;;;3.20;1.60;;;19.60;59.70;;;;;;5116129;27;21121;-49
2022/05/26 06:58:38;;;;;;;1.40;1.30;;;19.50;59.70;;;;;;5090652;27;20586;-48
2022/05/26 07:01:26;;;;;;;1.73;1.33;;;19.50;59.70;;;;;;5019487;28;21137;-48
2022/05/26 07:04:15;;;;;;;2.03;1.30;;;19.50;59.70;;;;;;5068491;27;20568;-48
2022/05/26 07:06:58;;;;;;;2.50;1.60;;;19.50;60.00;;;;;;5121049;27;20998;-51
2022/05/26 07:09:42;;;;;;;1.90;1.23;;;19.50;59.90;;;;;;5081542;27;21188;-48
2022/05/26 07:12:25;;;;;;;1.87;1.70;;;19.50;59.90;;;;;;5078051;27;21165;-43
2022/05/26 07:15:09;;;;;;;2.73;1.50;;;19.50;60.00;;;;;;5101183;27;20595;-48
2022/05/26 07:17:58;;;;;;;1.70;1.60;;;19.50;60.00;;;;;;5075831;27;20992;-50
2022/05/26 07:20:42;;;;;;;1.53;1.37;;;19.50;60.00;;;;;;5122728;27;20877;-48
2022/05/26 07:23:26;;;;;;;2.40;1.50;;;19.50;60.00;;;;;;5093833;27;21081;-47
2022/05/26 07:26:11;;;;;;;2.90;2.20;;;19.50;60.10;;;;;;5081153;28;20550;-47
2022/05/26 07:28:55;;;;;;;1.87;1.60;;;19.50;60.10;;;;;;5057241;28;20542;-48
2022/05/26 07:31:39;;;;;;;3.13;1.53;;;19.50;60.10;;;;;;5081904;27;20619;-48
2022/05/26 07:34:30;;;;;;;2.90;1.77;;;19.50;60.10;;;;;;5068142;27;20587;-46
2022/05/26 07:43:13;;;;;;;2.13;1.40;;;19.50;60.00;;;;;;5065226;27;20585;-48
2022/05/26 07:45:56;;;;;;;3.13;1.87;;;19.50;60.00;;;;;;5082213;27;21005;-47
2022/05/26 07:48:41;;;;;;;3.10;1.63;;;19.50;60.00;;;;;;5060824;27;20967;-49
2022/05/26 07:51:24;;;;;;;1.73;1.63;;;19.50;60.10;;;;;;5081148;28;21449;-47
2022/05/26 07:54:05;;;;;;;2.30;2.07;;;19.50;60.10;;;;;;5077010;27;20544;-50
2022/05/26 07:56:54;;;;;;;2.23;1.30;;;19.50;60.00;;;;;;5118504;27;20555;-48
2022/05/26 07:59:38;;;;;;;2.30;1.80;;;19.50;60.00;;;;;;5059655;27;20633;-49
2022/05/26 08:02:20;;;;;;;2.17;1.73;;;19.50;60.00;;;;;;5101185;27;20631;-50
2022/05/26 08:05:02;;;;;;;3.27;1.83;;;19.50;60.00;;;;;;5120868;27;20574;-47
2022/05/26 08:07:43;;;;;;;2.50;1.80;;;19.50;60.00;;;;;;5064568;28;21081;-48
2022/05/26 08:10:26;;;;;;;1.60;1.50;;;19.50;60.00;;;;;;5101239;27;21053;-48
2022/05/26 08:13:08;;;;;;;2.77;2.07;;;19.50;60.10;;;;;;5065412;27;21076;-47
2022/05/26 08:15:50;;;;;;;1.63;1.30;;;19.50;60.00;;;;;;5103634;27;20543;-50
2022/05/26 08:18:36;;;;;;;2.83;1.70;;;19.50;60.20;;;;;;5053750;28;20569;-48
2022/05/26 08:21:18;;;;;;;2.03;1.63;;;19.50;60.10;;;;;;5118899;27;20888;-49
2022/05/26 08:24:01;;;;;;;2.40;1.57;;;19.50;60.10;;;;;;5064862;28;20590;-49
2022/05/26 08:26:44;;;;;;;2.50;1.60;;;19.50;60.00;;;;;;5077494;28;20631;-49
2022/05/26 08:29:27;;;;;;;7.33;2.40;;;19.50;60.00;;;;;;5062784;27;20992;-47
2022/05/26 08:32:09;;;;;;;4.83;3.00;;;19.50;60.30;;;;;;5080475;27;20574;-48
2022/05/26 08:34:59;;;;;;;3.73;2.60;;;19.50;60.50;;;;;;5079061;28;20577;-50
2022/05/26 08:37:43;;;;;;;2.50;2.00;;;19.60;60.00;;;;;;5064523;27;20582;-50
2022/05/26 08:40:35;;;;;;;3.17;1.97;;;19.60;60.10;;;;;;5101128;27;20608;-47
2022/05/26 08:43:21;;;;;;;3.23;2.37;;;19.60;59.90;;;;;;5093110;27;20600;-50
2022/05/26 08:46:07;;;;;;;2.10;1.67;;;19.60;60.00;;;;;;5084792;27;20935;-67
2022/05/26 08:48:59;;;;;;;4.97;2.10;;;19.60;60.00;;;;;;5087015;27;20656;-50
2022/05/26 08:51:50;;;;;;;2.60;2.00;;;19.50;59.90;;;;;;5117525;27;20553;-49
2022/05/26 08:54:39;;;;;;;2.90;2.07;;;19.50;59.80;;;;;;5050788;27;20578;-48
2022/05/26 08:57:28;;;;;;;2.53;1.87;;;19.50;59.90;;;;;;5071452;28;20814;-52
2022/05/26 09:00:14;;;;;;;5.03;2.40;;;19.50;59.90;;;;;;5118153;27;20600;-49
2022/05/26 09:02:59;;;;;;;1.90;1.40;;;19.50;60.00;;;;;;5109955;27;20623;-48
2022/05/26 09:05:43;;;;;;;3.17;2.20;;;19.50;59.90;;;;;;5081674;27;20551;-48
2022/05/26 09:14:34;;;;;;;2.20;2.00;;;19.50;59.90;;;;;;5039263;27;20587;-49
2022/05/26 09:17:16;;;;;;;1.93;1.73;;;19.50;60.00;;;;;;5143035;27;20512;-49
2022/05/26 09:20:04;;;;;;;2.73;2.07;;;19.50;59.90;;;;;;5122466;27;20536;-49
2022/05/26 09:22:46;;;;;;;2.93;2.00;;;19.50;59.90;;;;;;5065887;27;20532;-49
2022/05/26 09:25:38;;;;;;;3.00;2.10;;;19.50;59.90;;;;;;5080171;27;20520;-48
2022/05/26 09:28:30;;;;;;;1.90;1.57;;;19.50;59.80;;;;;;5058852;27;20605;-47
2022/05/26 09:31:29;;;;;;;2.03;1.83;;;19.50;59.80;;;;;;5125328;27;20462;-50
2022/05/26 09:34:18;;;;;;;4.70;2.80;;;19.50;59.80;;;;;;4972973;28;21196;-48
2022/05/26 09:37:01;;;;;;;2.70;2.40;;;19.50;59.80;;;;;;5073221;27;20539;-49
2022/05/26 09:39:46;;;;;;;2.53;1.80;;;19.50;60.00;;;;;;5077432;27;21107;-52
2022/05/26 09:42:31;;;;;;;2.67;2.00;;;19.50;59.80;;;;;;5078862;27;20624;-47
2022/05/26 09:45:16;;;;;;;2.63;1.97;;;19.50;59.90;;;;;;5101869;27;21135;-47
2022/05/26 09:48:01;;;;;;;4.67;2.20;;;19.50;59.90;;;;;;5075642;27;20570;-50
2022/05/26 09:50:49;;;;;;;2.63;1.80;;;19.50;59.90;;;;;;5122281;27;20602;-47
2022/05/26 09:53:38;;;;;;;1.93;1.60;;;19.50;60.00;;;;;;5053626;28;20366;-49
2022/05/26 09:56:32;;;;;;;2.10;1.73;;;19.50;59.80;;;;;;5099115;27;20563;-48
2022/05/26 09:59:27;;;;;;;2.33;1.60;;;19.50;59.80;;;;;;5072647;27;20582;-49
2022/05/26 10:02:16;;;;;;;2.50;2.07;;;19.50;59.80;;;;;;5080808;28;20561;-48
2022/05/26 10:05:04;;;;;;;2.67;2.40;;;19.50;59.80;;;;;;5080718;27;20528;-48
2022/05/26 10:07:59;;;;;;;4.87;1.93;;;19.50;59.80;;;;;;5095483;27;20618;-49
2022/05/26 10:10:44;;;;;;;2.70;1.80;;;19.50;59.80;;;;;;5086119;27;2264391;-47
2022/05/26 10:13:46;;;;;;;2.30;2.07;;;19.50;59.80;;;;;;5106741;27;20973;-49
2022/05/26 10:16:39;;;;;;;2.70;1.60;;;19.50;59.70;;;;;;5099951;27;20627;-49
2022/05/26 10:19:40;;;;;;;3.00;1.83;;;19.50;59.70;;;;;;5063268;27;20606;-49
2022/05/26 10:22:36;;;;;;;2.23;2.03;;;19.50;59.70;;;;;;5069273;27;20582;-49
2022/05/26 10:25:30;;;;;;;2.27;2.07;;;19.50;59.70;;;;;;5099380;27;20995;-49
2022/05/26 10:28:47;;;;;;;2.63;2.00;;;19.50;59.70;;;;;;5104350;27;20580;-49
2022/05/26 10:31:40;;;;;;;2.30;1.80;;;19.50;59.70;;;;;;5141983;27;20548;-50
2022/05/26 10:35:00;;;;;;;2.23;1.80;;;19.50;59.70;;;;;;5072715;27;20615;-48
2022/05/26 10:38:02;;;;;;;2.50;2.30;;;19.50;59.60;;;;;;5042177;28;20926;-47
2022/05/26 10:40:54;;;;;;;2.00;1.80;;;19.50;59.70;;;;;;5081449;27;20527;-48
2022/05/26 10:43:47;;;;;;;2.90;2.10;;;19.50;59.70;;;;;;5099078;27;21091;-49
2022/05/26 10:46:34;;;;;;;2.13;2.00;;;19.50;59.70;;;;;;5078712;27;20577;-49
2022/05/26 10:49:25;;;;;;;3.63;1.83;;;19.50;59.70;;;;;;5104013;27;20581;-51
2022/05/26 10:52:13;;;;;;;3.87;2.00;;;19.50;59.70;;;;;;5079638;27;20527;-51
2022/05/26 10:55:00;;;;;;;2.00;1.90;;;19.50;59.60;;;;;;5079778;27;20621;-46
2022/05/26 10:57:48;;;;;;;2.90;2.10;;;19.50;59.50;;;;;;5104417;27;20279;-48
2022/05/26 11:00:33;;;;;;;3.70;1.90;;;19.50;59.60;;;;;;5081464;27;20560;-49
2022/05/26 11:03:22;;;;;;;3.47;2.10;;;19.50;59.50;;;;;;5112658;27;20587;-50
2022/05/26 11:06:21;;;;;;;3.07;1.60;;;19.50;59.50;;;;;;5123562;27;20499;-49
2022/05/26 11:09:15;;;;;;;2.53;2.20;;;19.50;59.50;;;;;;5022184;27;21098;-47
2022/05/26 11:12:02;;;;;;;2.50;2.30;;;19.50;59.20;;;;;;5082909;27;20568;-48
2022/05/26 11:18:06;;;;;;;4.37;2.60;;;19.50;59.40;;;;;;5111106;27;20604;-50
2022/05/26 11:20:57;;;;;;;1.97;1.77;;;19.50;59.40;;;;;;5136333;27;20483;-48
2022/05/26 11:23:45;;;;;;;2.43;2.23;;;19.50;59.30;;;;;;5103406;27;20778;-47
2022/05/26 11:26:40;;;;;;;2.23;1.70;;;19.50;59.20;;;;;;5122425;27;20552;-49
2022/05/26 11:29:33;;;;;;;2.20;1.70;;;19.50;59.20;;;;;;5047855;27;20615;-49
2022/05/26 11:38:43;;;;;;;2.50;1.80;;;19.50;59.10;;;;;;5097471;27;20681;-49
2022/05/26 11:41:32;;;;;;;2.73;1.93;;;19.50;59.20;;;;;;5122759;27;20525;-47
2022/05/26 11:44:34;;;;;;;2.47;2.27;;;19.50;59.10;;;;;;5043800;27;20547;-50
2022/05/26 11:47:47;;;;;;;4.30;2.40;;;19.60;59.30;;;;;;5078279;27;21000;-48
2022/05/26 11:50:55;;;;;;;3.40;2.90;;;19.60;59.60;;;;;;5102032;27;20599;-49
2022/05/26 11:53:43;;;;;;;2.73;2.00;;;19.50;59.20;;;;;;5122605;27;20614;-48
2022/05/26 11:56:48;;;;;;;2.27;2.07;;;19.60;59.30;;;;;;5119442;27;20548;-49
2022/05/26 11:59:47;;;;;;;2.57;2.37;;;19.50;59.30;;;;;;5075718;27;20546;-66
2022/05/26 12:02:32;;;;;;;3.60;2.15;;;19.50;59.30;;;;;;4993694;27;4733320;-48
2022/05/26 12:05:45;;;;;;;3.00;2.07;;;19.60;59.40;;;;;;5088392;28;20533;-66
2022/05/26 12:08:30;;;;;;;2.70;2.50;;;19.60;59.40;;;;;;4985853;27;4541902;-46
2022/05/26 12:11:20;;;;;;;3.73;2.07;;;19.60;59.30;;;;;;5122498;27;20603;-50
2022/05/26 12:14:22;;;;;;;2.23;2.03;;;19.60;59.40;;;;;;5050502;27;20571;-48
2022/05/26 12:17:40;;;;;;;3.30;3.00;;;19.60;59.30;;;;;;5104233;27;20293;-50
2022/05/26 12:20:42;;;;;;;2.50;2.07;;;19.50;59.30;;;;;;5081280;27;20554;-47
2022/05/26 12:23:29;;;;;;;2.70;2.43;;;19.60;59.30;;;;;;5108956;27;20820;-48
2022/05/26 12:26:50;;;;;;;2.57;1.73;;;19.60;59.20;;;;;;5016638;28;20614;-48
2022/05/26 12:30:03;;;;;;;3.00;2.70;;;19.60;59.20;;;;;;5082868;27;20595;-51
2022/05/26 12:32:55;;;;;;;2.90;2.53;;;19.60;59.10;;;;;;5075371;27;20576;-46
2022/05/26 12:35:53;;;;;;;2.37;2.17;;;19.60;59.10;;;;;;5098201;27;20590;-49
2022/05/26 12:38:52;;;;;;;3.67;2.53;;;19.60;59.10;;;;;;5100440;27;20559;-49
2022/05/26 12:41:53;;;;;;;3.23;2.50;;;19.60;59.20;;;;;;5147073;27;20275;-47
2022/05/26 12:45:28;;;;;;;2.43;2.23;;;19.60;59.10;;;;;;5076239;28;20873;-50
2022/05/26 12:48:53;;;;;;;3.07;2.77;;;19.60;59.10;;;;;;5117084;27;20569;-49
2022/05/26 12:51:41;;;;;;;2.83;2.37;;;19.60;59.30;;;;;;5079611;27;21205;-47
2022/05/26 12:54:25;;;;;;;2.90;2.70;;;19.60;59.10;;;;;;5063872;27;20574;-48
2022/05/26 12:57:15;;;;;;;2.40;2.00;;;19.60;59.10;;;;;;5101535;27;20823;-50
2022/05/26 13:00:27;;;;;;;2.20;1.90;;;19.60;59.20;;;;;;5093234;27;20361;-48
2022/05/26 13:03:22;;;;;;;2.30;2.10;;;19.60;59.30;;;;;;5065617;27;20618;-50
2022/05/26 13:06:09;;;;;;;4.13;3.13;;;19.60;59.10;;;;;;5073614;27;20562;-49
2022/05/26 13:09:02;;;;;;;2.63;2.40;;;19.70;59.20;;;;;;5105277;27;20941;-46
2022/05/26 13:11:58;;;;;;;2.67;2.43;;;19.70;59.30;;;;;;5142604;27;20973;-48
2022/05/26 13:14:57;;;;;;;1.83;1.50;;;19.70;59.10;;;;;;5070189;27;20608;-47
2022/05/26 13:17:48;;;;;;;3.73;2.13;;;19.70;59.20;;;;;;5096345;27;20605;-47
2022/05/26 13:20:38;;;;;;;2.23;2.07;;;19.70;59.20;;;;;;5153208;27;20267;-49
2022/05/26 13:23:55;;;;;;;2.40;2.20;;;19.70;59.20;;;;;;5096502;27;20895;-48
2022/05/26 13:26:58;;;;;;;4.43;2.57;;;19.70;59.10;;;;;;5122902;27;20526;-49
2022/05/26 13:29:46;;;;;;;2.50;2.30;;;19.70;59.10;;;;;;5075946;27;20583;-48
2022/05/26 13:35:31;;;;;;;2.20;2.10;;;19.70;59.00;;;;;;5079741;27;20606;-48
2022/05/26 13:38:32;;;;;;;2.37;2.17;;;19.70;59.00;;;;;;5059969;27;20633;-50
2022/05/26 13:41:28;;;;;;;2.30;2.10;;;19.70;59.10;;;;;;5081447;27;20510;-47
2022/05/26 13:44:16;;;;;;;3.10;2.03;;;19.70;59.10;;;;;;5082819;27;20570;-47
2022/05/26 13:47:08;;;;;;;3.33;2.37;;;19.70;59.10;;;;;;5148323;27;20298;-48
2022/05/26 13:50:04;;;;;;;2.83;2.23;;;19.70;59.10;;;;;;5062338;27;20604;-48
2022/05/26 13:52:57;;;;;;;2.10;2.00;;;19.80;59.10;;;;;;5101633;27;20528;-48
2022/05/26 13:55:51;;;;;;;2.50;2.30;;;19.80;59.20;;;;;;5121401;27;21213;-47
2022/05/26 13:58:35;;;;;;;2.27;2.03;;;19.80;59.10;;;;;;5010701;27;20664;-47
2022/05/26 14:01:25;;;;;;;1.70;1.60;;;19.80;59.20;;;;;;5102672;27;20940;-47
2022/05/26 14:04:19;;;;;;;2.20;2.00;;;19.80;59.10;;;;;;5107648;27;20537;-47
2022/05/26 14:07:03;;;;;;;1.93;1.60;;;19.80;59.10;;;;;;5134673;27;20498;-49
2022/05/26 14:10:01;;;;;;;2.00;1.90;;;19.80;59.10;;;;;;5070649;27;20577;-47
2022/05/26 14:12:45;;;;;;;2.10;1.80;;;19.80;59.10;;;;;;5062110;27;20562;-47
2022/05/26 14:15:46;;;;;;;2.73;2.03;;;19.80;59.10;;;;;;5078971;27;20570;-48
2022/05/26 14:18:43;;;;;;;2.40;2.20;;;19.80;59.10;;;;;;5071105;27;20578;-48
2022/05/26 14:21:33;;;;;;;2.73;1.90;;;19.80;59.10;;;;;;5122841;27;20543;-49
2022/05/26 14:24:32;;;;;;;5.32;2.20;;;19.80;58.90;;;;;;5057838;27;20870;-48
2022/05/26 14:27:18;;;;;;;5.07;1.90;;;19.90;58.20;;;;;;5120958;27;20801;-48
2022/05/26 14:30:31;;;;;;;3.50;1.60;;;19.90;57.90;;;;;;5144509;27;20448;-49
2022/05/26 14:33:21;;;;;;;2.30;1.60;;;19.90;58.10;;;;;;5123340;27;20671;-47
2022/05/26 14:36:10;;;;;;;2.97;2.47;;;19.90;58.10;;;;;;5143248;27;20452;-49
2022/05/26 14:38:52;;;;;;;2.40;1.70;;;19.90;58.30;;;;;;5107288;27;20634;-50
2022/05/26 14:41:43;;;;;;;3.07;1.60;;;19.90;58.30;;;;;;5123664;27;20537;-51
2022/05/26 14:44:41;;;;;;;2.30;1.60;;;19.90;58.40;;;;;;5096051;27;20824;-47
2022/05/26 14:47:42;;;;;;;2.47;2.27;;;19.90;58.60;;;;;;5120753;27;20556;-50
2022/05/26 14:50:24;;;;;;;2.40;2.10;;;19.90;58.50;;;;;;5120115;27;20523;-46
2022/05/26 14:53:15;;;;;;;3.60;2.10;;;19.90;58.60;;;;;;5164987;27;21112;-51
2022/05/26 14:55:56;;;;;;;2.60;2.40;;;19.90;58.60;;;;;;5117191;27;20842;-48
2022/05/26 14:58:40;;;;;;;2.53;1.50;;;19.90;58.60;;;;;;5096881;27;20603;-47
2022/05/26 15:01:27;;;;;;;2.03;1.77;;;19.90;58.50;;;;;;5143782;27;20556;-47
2022/05/26 15:04:28;;;;;;;4.30;1.80;;;19.90;58.60;;;;;;5034964;27;20584;-49
2022/05/26 15:07:18;;;;;;;2.53;2.00;;;19.90;58.40;;;;;;5062198;27;20625;-49
2022/05/26 15:10:06;;;;;;;3.50;2.07;;;19.90;58.60;;;;;;5145700;27;20466;-48
2022/05/26 15:12:53;;;;;;;3.07;1.90;;;19.90;58.60;;;;;;5092444;27;20655;-48
2022/05/26 15:15:46;;;;;;;2.53;2.00;;;19.90;58.60;;;;;;5101256;27;20574;-50
2022/05/26 15:18:29;;;;;;;2.53;2.00;;;19.90;58.60;;;;;;5047177;27;20609;-48
2022/05/26 15:21:19;;;;;;;1.77;1.67;;;20.00;58.80;;;;;;5127755;27;20496;-50